Dunlow, WV (25511)

08:23 PM EDT del 20 Agosto 2014 (GMT -0400)
Near Salt Rock Elementary School | Change Station
CLOSE
Current Station
Stazione meteo personale
Location: Salt Rock, WV
Altitudine: 627 ft
Stazioni meteo nelle vicinanze

Alt. 627 ft 38.32 °N, 82.23 °W | Updated 4 minutes ago

Light Rain
Pioggia leggera
72.1 °F
Sembra 72.1 °F
N
0.0
Vento Variabile Vento da OSO
Gusts 0.0 mph

Oggi
Massima -- | Minima -- °F
--% Possibilità di precip.
Ieri
Massima -- | Minima -- °F
Precip. -- in
6:48 AM 8:16 PM
Luna calante, 18% visible
Pressione 30.03 in
Visibilità 10.0 miglia
Nuvole Nubi sparse 4200 ft
Nubi sparse 10000 ft
Molto nuvoloso 12000 ft
Punto di rugiada 70 °F
Umidità 94%
Piovosità 0.37 in
Spessore del manto nevoso Non disponibile.
Raggi UV 0 fuori da 12
Polline 7.60 fuori da 12
Qualità dell'aria Non disponibile.
Flu Activity Non disponibile.
METAR KSJS 210015Z AUTO 23005KT 10SM -RA SCT042 SCT100 BKN120 23/20 A3003 RMK AO2 T02310204

More Conditions Fewer Conditions

Pressione 30.03 in
Visibilità 10.0 miglia
Nuvole Nubi sparse 4200 ft
Nubi sparse 10000 ft
Molto nuvoloso 12000 ft
Punto di rugiada 70 °F
Umidità 94%
Piovosità 0.37 in
Spessore del manto nevoso Non disponibile.
Raggi UV 0 fuori da 12
Polline 7.60 fuori da 12
Qualità dell'aria Non disponibile.
Flu Activity Non disponibile.
METAR KSJS 210015Z AUTO 23005KT 10SM -RA SCT042 SCT100 BKN120 23/20 A3003 RMK AO2 T02310204

More Conditions Fewer Conditions

10-Day Weather Forecast

Almanac

Astronomia

Aug. 20, 2014 Alba Tramonto
Ora attuale 06:48 EDT 20:16 EDT
Crepuscolo civile 06:21 EDT 20:43 EDT
Crepuscolo nautico 05:47 EDT 21:16 EDT
Crepuscolo astronomico 05:12 EDT 21:51 EDT
Luna 02:29 EDT (8/20) 16:58 EDT (8/20)
Estensione della luce visibile 14h 22m
Lunghezza del giorno
13h 27m
Tomorrow will be 2m 14s shorter.
Luna calante, 18% of the Moon is Illuminated
Oggi
Luna calante
Ago 25
Nuovo
Set 2
Primo quarto
Set 8
Luna piena
Set 15
Ultimo quarto

Gli estremi di oggi

State Highs State Lows

Community

WunderPhotos

Upload Photos

1,745,807 foto caricate!

WunderBlogs® & News

Nearby

Profondità neve

Stazione Profondità Altitudine
Non sono state evidenziate nuove nevicate

Attività sismica

Città  Distanza Mag. Data & Ora
Non sono state riportate attività sismiche nelle vicinanze.
Minimo Magnitudo Mostrato è 2.5.

Temperature delle acque costiere

Località Temperatura
Nessun dato dalle stazioni

Stazioni meteo nelle vicinanze